Time;durP1;ratioP1;P1;durP2;ratioP2;P2;SDS_P1;SDS_P2;PMS_P1;PMS_P2;Temp;Humidity;BMP_temperature;BMP_pressure;BME280_temperature;BME280_humidity;BME280_pressure;Samples;Min_cycle;Max_cycle;Signal;HPM_P1;HPM_P2
2022/03/03 00:02:12;;;;;;;27.50;15.70;;;;;;;-1.13;73.13;101491.41;5076623;28;20296;-83
2022/03/03 00:04:38;;;;;;;25.50;14.60;;;;;;;-1.13;73.20;101496.63;5088418;28;20217;-82
2022/03/03 00:07:06;;;;;;;25.07;15.20;;;;;;;-1.15;73.33;101498.38;5075772;28;20292;-83
2022/03/03 00:09:33;;;;;;;24.60;15.80;;;;;;;-1.17;73.26;101492.28;5079081;28;20209;-83
2022/03/03 00:12:00;;;;;;;26.90;16.03;;;;;;;-1.18;73.98;101491.41;5088436;28;20251;-83
2022/03/03 00:14:27;;;;;;;27.47;16.13;;;;;;;-1.18;73.65;101488.78;5074738;28;20228;-83
2022/03/03 00:16:53;;;;;;;28.73;18.13;;;;;;;-1.19;73.70;101480.94;5081926;28;20291;-83
2022/03/03 00:19:20;;;;;;;29.60;16.70;;;;;;;-1.20;73.90;101480.06;5090277;28;20205;-82
2022/03/03 00:21:46;;;;;;;27.87;17.03;;;;;;;-1.20;74.12;101479.19;5096748;28;20578;-83
2022/03/03 00:24:13;;;;;;;30.33;17.10;;;;;;;-1.19;74.22;101481.81;5101742;28;20655;-83
2022/03/03 00:26:41;;;;;;;31.27;17.43;;;;;;;-1.20;74.19;101474.84;5102119;28;20212;-83
2022/03/03 00:29:08;;;;;;;31.80;18.50;;;;;;;-1.19;74.33;101487.03;5071206;28;20231;-83
2022/03/03 00:31:35;;;;;;;33.23;17.33;;;;;;;-1.18;74.51;101486.19;5090300;28;20216;-83
2022/03/03 00:34:02;;;;;;;28.20;16.53;;;;;;;-1.20;74.22;101480.06;5082668;28;20221;-82
2022/03/03 00:36:29;;;;;;;30.67;17.17;;;;;;;-1.21;74.19;101483.56;5083072;28;20224;-83
2022/03/03 00:38:56;;;;;;;27.00;15.83;;;;;;;-1.21;73.99;101483.56;5081651;28;20197;-84
2022/03/03 00:41:23;;;;;;;29.40;16.60;;;;;;;-1.23;74.42;101481.81;5088445;28;20240;-84
2022/03/03 00:43:51;;;;;;;26.63;16.90;;;;;;;-1.27;74.68;101480.97;5089523;28;20655;-84
2022/03/03 00:46:18;;;;;;;29.13;16.77;;;;;;;-1.31;74.36;101478.38;5082873;28;20208;-84
2022/03/03 00:48:45;;;;;;;33.37;17.43;;;;;;;-1.33;74.82;101483.59;5082915;28;20207;-84
2022/03/03 00:51:12;;;;;;;25.63;16.13;;;;;;;-1.34;74.37;101462.69;5083330;28;20231;-84
2022/03/03 00:53:39;;;;;;;26.53;16.63;;;;;;;-1.37;74.84;101457.47;5082206;28;20677;-84
2022/03/03 00:56:06;;;;;;;33.70;17.93;;;;;;;-1.39;74.64;101447.00;5085104;28;20239;-84
2022/03/03 00:58:33;;;;;;;29.50;16.97;;;;;;;-1.41;74.63;101444.41;5102756;28;20631;-83
2022/03/03 01:01:02;;;;;;;30.70;17.37;;;;;;;-1.43;75.18;101440.91;5089665;28;20647;-83
2022/03/03 01:03:29;;;;;;;30.17;16.67;;;;;;;-1.44;75.11;101433.97;5083359;28;20699;-83
2022/03/03 01:05:55;;;;;;;29.53;16.97;;;;;;;-1.45;75.21;101440.06;5083611;28;20213;-83
2022/03/03 01:08:22;;;;;;;28.63;16.07;;;;;;;-1.44;75.23;101443.56;5077535;28;20683;-82
2022/03/03 01:10:49;;;;;;;23.73;14.43;;;;;;;-1.46;74.84;101445.31;5083153;28;20223;-82
2022/03/03 01:13:16;;;;;;;27.27;16.33;;;;;;;-1.52;74.81;101459.22;5089588;22;20379;-71
2022/03/03 01:15:43;;;;;;;26.23;15.97;;;;;;;-1.58;74.66;101459.22;5089360;28;20717;-69
2022/03/03 01:18:11;;;;;;;27.40;15.20;;;;;;;-1.60;74.89;101458.34;5075985;28;20205;-71
2022/03/03 01:20:37;;;;;;;29.67;15.90;;;;;;;-1.64;75.14;101451.41;5078467;28;20219;-68
2022/03/03 01:23:04;;;;;;;27.47;16.30;;;;;;;-1.64;75.04;101442.72;5064639;28;20218;-72
2022/03/03 01:25:30;;;;;;;26.33;15.60;;;;;;;-1.66;75.23;101442.72;5089150;22;20224;-69
2022/03/03 01:27:57;;;;;;;28.97;15.50;;;;;;;-1.66;75.62;101428.78;5070097;28;20201;-68
2022/03/03 01:30:24;;;;;;;26.83;15.40;;;;;;;-1.67;75.78;101432.25;5081371;28;20211;-68
2022/03/03 01:32:50;;;;;;;26.73;15.87;;;;;;;-1.69;75.84;101429.66;5077077;28;20232;-68
2022/03/03 01:35:18;;;;;;;23.13;15.60;;;;;;;-1.70;75.38;101430.50;5070221;28;20216;-68
2022/03/03 01:37:45;;;;;;;25.10;15.93;;;;;;;-1.72;75.32;101421.81;5075026;28;20227;-69
2022/03/03 01:40:12;;;;;;;28.17;15.00;;;;;;;-1.73;75.31;101422.69;5072932;28;20661;-69
2022/03/03 01:42:39;;;;;;;25.53;15.00;;;;;;;-1.75;75.90;101427.03;5090272;28;20204;-70
2022/03/03 01:45:07;;;;;;;23.60;14.57;;;;;;;-1.76;75.61;101425.28;5068615;28;20215;-70
2022/03/03 01:47:35;;;;;;;28.97;15.00;;;;;;;-1.77;76.22;101423.53;5071958;28;20209;-70
2022/03/03 01:50:01;;;;;;;22.57;14.87;;;;;;;-1.78;76.02;101433.13;5071575;28;20208;-68
2022/03/03 01:52:29;;;;;;;22.77;14.97;;;;;;;-1.79;76.02;101438.34;5072674;28;20225;-68
2022/03/03 01:54:56;;;;;;;24.67;14.90;;;;;;;-1.81;76.06;101424.44;5091532;28;20208;-68
2022/03/03 01:57:22;;;;;;;25.03;14.70;;;;;;;-1.81;76.07;101427.06;5072798;28;20232;-67
2022/03/03 01:59:49;;;;;;;25.67;15.53;;;;;;;-1.81;76.61;101424.44;5075867;28;20200;-69
2022/03/03 02:02:16;;;;;;;22.30;14.93;;;;;;;-1.84;76.66;101427.91;5079172;28;20200;-68
2022/03/03 02:04:42;;;;;;;25.10;15.60;;;;;;;-1.84;76.22;101430.53;5081278;28;20208;-68
2022/03/03 02:07:09;;;;;;;25.47;15.50;;;;;;;-1.85;76.46;101431.41;5079930;28;20231;-69
2022/03/03 02:09:38;;;;;;;26.93;15.37;;;;;;;-1.87;76.12;101421.81;5082484;28;20216;-69
2022/03/03 02:12:05;;;;;;;26.77;16.20;;;;;;;-1.90;76.25;101417.47;5078712;28;20205;-67
2022/03/03 02:14:40;;;;;;;26.80;15.73;;;;;;;-1.92;76.26;101413.97;5075069;28;20531;-68
2022/03/03 02:17:07;;;;;;;27.00;15.37;;;;;;;-1.95;76.22;101419.19;5068928;28;20221;-68
2022/03/03 02:19:34;;;;;;;28.90;16.77;;;;;;;-1.95;76.26;101428.78;5083287;28;20205;-68
2022/03/03 02:22:02;;;;;;;25.77;15.60;;;;;;;-1.97;76.47;101415.72;5077732;28;20577;-68
2022/03/03 02:24:28;;;;;;;28.10;16.83;;;;;;;-1.98;76.40;101411.41;5090897;28;20212;-68
2022/03/03 02:26:56;;;;;;;30.10;15.90;;;;;;;-1.98;76.99;101406.19;5075912;28;20240;-70
2022/03/03 02:29:23;;;;;;;31.10;16.00;;;;;;;-1.99;76.74;101401.81;5068868;28;20219;-70
2022/03/03 02:31:49;;;;;;;26.03;15.30;;;;;;;-2.00;76.83;101405.31;5084505;28;20244;-68
2022/03/03 02:34:16;;;;;;;28.53;16.17;;;;;;;-2.01;76.45;101414.00;5075579;28;20221;-68
2022/03/03 02:36:43;;;;;;;25.90;15.60;;;;;;;-2.02;76.65;101416.59;5090209;28;20225;-71
2022/03/03 02:39:10;;;;;;;27.90;15.27;;;;;;;-2.01;77.18;101413.13;5085335;28;20204;-67
2022/03/03 02:41:37;;;;;;;27.07;15.93;;;;;;;-2.04;77.10;101406.16;5078733;28;20208;-68
2022/03/03 02:44:05;;;;;;;24.93;14.73;;;;;;;-2.05;76.71;101401.81;5073692;28;20258;-69
2022/03/03 02:46:32;;;;;;;30.93;16.20;;;;;;;-2.06;76.84;101405.28;5072086;28;20236;-68
2022/03/03 02:48:58;;;;;;;29.07;15.77;;;;;;;-2.07;76.73;101406.16;5072444;28;20204;-68
2022/03/03 02:51:25;;;;;;;24.17;14.63;;;;;;;-2.08;76.69;101411.38;5074424;28;20195;-68
2022/03/03 02:53:52;;;;;;;26.07;15.50;;;;;;;-2.10;76.75;101416.59;5082781;28;20227;-68
2022/03/03 02:56:20;;;;;;;27.20;17.30;;;;;;;-2.10;76.80;101416.59;5069281;28;20252;-68
2022/03/03 02:58:45;;;;;;;27.23;15.90;;;;;;;-2.12;76.95;101413.09;5070262;28;20228;-68
2022/03/03 03:01:12;;;;;;;26.43;16.60;;;;;;;-2.15;76.82;101393.09;5069970;28;20209;-68
2022/03/03 03:03:39;;;;;;;26.57;16.93;;;;;;;-2.15;77.30;101398.31;5084095;28;20207;-68
2022/03/03 03:06:06;;;;;;;25.73;16.00;;;;;;;-2.18;77.39;101398.34;5081131;28;20221;-68
2022/03/03 03:08:33;;;;;;;26.10;16.10;;;;;;;-2.20;77.13;101404.41;5084404;28;20218;-68
2022/03/03 03:10:59;;;;;;;27.50;16.27;;;;;;;-2.21;77.13;101414.00;5078998;28;20249;-68
2022/03/03 03:13:27;;;;;;;32.57;16.70;;;;;;;-2.25;77.02;101408.75;5086887;28;20228;-69
2022/03/03 03:15:55;;;;;;;23.80;15.53;;;;;;;-2.27;77.00;101400.94;5076630;28;20233;-68
2022/03/03 03:18:23;;;;;;;27.97;16.67;;;;;;;-2.30;76.81;101400.91;5065491;28;20196;-69
2022/03/03 03:20:51;;;;;;;23.30;15.53;;;;;;;-2.32;77.29;101407.88;5086742;28;20579;-67
2022/03/03 03:23:19;;;;;;;26.13;15.17;;;;;;;-2.33;77.46;101408.72;5065146;28;20217;-68
2022/03/03 03:25:46;;;;;;;26.03;16.20;;;;;;;-2.36;76.83;101400.94;5076147;28;20239;-68
2022/03/03 03:28:14;;;;;;;29.37;15.77;;;;;;;-2.38;77.37;101397.44;5088988;28;20654;-67
2022/03/03 03:30:42;;;;;;;25.57;15.60;;;;;;;-2.39;77.23;101392.22;5083160;28;20205;-68
2022/03/03 03:33:09;;;;;;;24.13;15.53;;;;;;;-2.42;77.13;101398.31;5072672;28;20232;-70
2022/03/03 03:35:36;;;;;;;27.67;16.07;;;;;;;-2.45;77.36;101393.06;5082931;28;20729;-68
2022/03/03 03:38:03;;;;;;;24.87;16.07;;;;;;;-2.46;77.08;101388.72;5071005;28;20215;-69
2022/03/03 03:40:30;;;;;;;28.07;16.17;;;;;;;-2.49;77.34;101391.31;5072722;28;20208;-69
2022/03/03 03:42:57;;;;;;;29.17;16.03;;;;;;;-2.50;77.42;101386.97;5069882;28;20213;-68
2022/03/03 03:45:23;;;;;;;27.33;16.60;;;;;;;-2.53;77.08;101385.25;5074653;28;20228;-68
2022/03/03 03:47:51;;;;;;;29.70;16.63;;;;;;;-2.54;76.92;101383.50;5071107;28;20581;-68
2022/03/03 03:50:18;;;;;;;29.97;16.73;;;;;;;-2.56;77.07;101380.03;5070331;28;20208;-69
2022/03/03 03:52:44;;;;;;;27.60;15.63;;;;;;;-2.58;77.09;101370.47;5073365;28;20216;-68
2022/03/03 03:55:12;;;;;;;24.90;15.83;;;;;;;-2.61;77.34;101368.72;5088830;28;20211;-71
2022/03/03 03:57:39;;;;;;;26.20;16.13;;;;;;;-2.63;77.15;101365.22;5084329;28;20581;-69
2022/03/03 04:00:09;;;;;;;27.53;16.43;;;;;;;-2.66;77.23;101375.66;5069413;28;20209;-68
2022/03/03 04:02:35;;;;;;;28.07;15.83;;;;;;;-2.67;77.49;101378.25;5069641;28;20215;-70
2022/03/03 04:05:03;;;;;;;24.83;15.27;;;;;;;-2.70;77.54;101373.94;5070787;28;20205;-68
2022/03/03 04:07:30;;;;;;;26.63;15.87;;;;;;;-2.70;77.23;101373.06;5083528;28;20218;-71
2022/03/03 04:09:57;;;;;;;25.97;16.47;;;;;;;-2.72;77.68;101372.19;5067509;28;20201;-68
2022/03/03 04:12:23;;;;;;;28.70;18.00;;;;;;;-2.75;77.30;101383.47;5080476;28;20216;-68
2022/03/03 04:14:50;;;;;;;24.83;15.47;;;;;;;-2.77;77.58;101389.53;5077958;28;20593;-68
2022/03/03 04:17:16;;;;;;;32.63;16.73;;;;;;;-2.82;77.42;101385.16;5087617;28;20224;-68
2022/03/03 04:19:43;;;;;;;26.23;15.23;;;;;;;-2.87;77.17;101386.91;5084697;28;20274;-68
2022/03/03 04:22:11;;;;;;;25.97;15.57;;;;;;;-2.90;77.38;101399.94;5064203;28;20205;-68
2022/03/03 04:24:37;;;;;;;29.10;15.97;;;;;;;-2.92;77.52;101395.56;5062058;28;20212;-67
2022/03/03 04:27:05;;;;;;;29.13;16.33;;;;;;;-2.95;77.46;101393.81;5061053;28;20229;-67
2022/03/03 04:29:32;;;;;;;26.93;16.07;;;;;;;-2.97;77.58;101402.50;5075276;28;20197;-66
2022/03/03 04:31:58;;;;;;;25.60;15.63;;;;;;;-2.98;77.64;101391.19;5068710;28;20201;-67
2022/03/03 04:34:26;;;;;;;29.87;16.73;;;;;;;-2.99;77.77;101396.41;5061670;28;20720;-67
2022/03/03 04:36:53;;;;;;;29.03;16.73;;;;;;;-3.01;78.21;101395.53;5067018;28;20220;-68
2022/03/03 04:39:21;;;;;;;25.93;16.43;;;;;;;-3.03;77.93;101395.53;5075785;28;20678;-67
2022/03/03 04:41:48;;;;;;;27.40;16.70;;;;;;;-3.05;78.17;101384.25;5071256;28;20658;-69
2022/03/03 04:44:14;;;;;;;30.30;17.67;;;;;;;-3.05;78.24;101383.38;5065401;28;20201;-68
2022/03/03 04:46:41;;;;;;;28.67;17.27;;;;;;;-3.07;78.38;101391.19;5065896;28;20225;-68
2022/03/03 04:49:08;;;;;;;26.47;15.57;;;;;;;-3.08;78.42;101396.38;5065363;28;20690;-68
2022/03/03 04:51:36;;;;;;;26.70;15.70;;;;;;;-3.10;78.51;101390.28;5067246;28;20208;-69
2022/03/03 04:54:04;;;;;;;24.03;15.57;;;;;;;-3.11;78.17;101384.22;5072657;28;20252;-69
2022/03/03 04:56:32;;;;;;;27.03;16.07;;;;;;;-3.14;78.37;101389.41;5069746;28;20730;-69
2022/03/03 04:58:59;;;;;;;29.63;15.50;;;;;;;-3.16;78.65;101388.53;5062761;28;20446;-68
2022/03/03 05:01:25;;;;;;;30.63;16.40;;;;;;;-3.18;78.25;101390.25;5067712;28;20208;-70
2022/03/03 05:03:52;;;;;;;31.10;17.43;;;;;;;-3.21;78.45;101396.31;5074203;28;20205;-70
2022/03/03 05:06:18;;;;;;;29.87;16.40;;;;;;;-3.22;78.62;101397.16;5071964;28;20243;-69
2022/03/03 05:08:45;;;;;;;30.03;16.73;;;;;;;-3.24;78.47;101398.94;5084750;28;20211;-69
2022/03/03 05:11:12;;;;;;;31.40;16.53;;;;;;;-3.26;78.80;101392.84;5065116;28;20208;-66
2022/03/03 05:13:39;;;;;;;25.93;16.67;;;;;;;-3.29;78.73;101392.81;5065634;28;20316;-70
2022/03/03 05:16:06;;;;;;;26.40;16.23;;;;;;;-3.30;78.68;101390.19;5062803;28;20229;-72
2022/03/03 05:18:33;;;;;;;26.60;16.60;;;;;;;-3.33;78.64;101387.56;5068024;28;20200;-70
2022/03/03 05:20:59;;;;;;;28.43;16.50;;;;;;;-3.35;78.74;101397.09;5068672;28;20670;-69
2022/03/03 05:23:26;;;;;;;29.43;16.67;;;;;;;-3.36;78.53;101392.75;5073353;28;20234;-69
2022/03/03 05:25:53;;;;;;;31.90;17.23;;;;;;;-3.37;79.22;101391.88;5072156;28;20304;-69
2022/03/03 05:28:19;;;;;;;29.00;17.47;;;;;;;-3.39;79.27;101396.22;5077084;28;20201;-70
2022/03/03 05:30:47;;;;;;;31.30;18.27;;;;;;;-3.38;79.18;101384.06;5063200;28;20220;-72
2022/03/03 05:33:14;;;;;;;32.23;16.63;;;;;;;-3.39;79.34;101387.53;5061396;28;20208;-69
2022/03/03 05:35:41;;;;;;;30.67;17.23;;;;;;;-3.40;79.17;101378.00;5061342;28;20775;-69
2022/03/03 05:38:10;;;;;;;28.10;16.13;;;;;;;-3.42;79.16;101397.97;5059806;28;20629;-70
2022/03/03 05:40:37;;;;;;;27.67;16.53;;;;;;;-3.45;78.99;101400.53;5063250;28;20741;-70
2022/03/03 05:43:04;;;;;;;30.77;16.93;;;;;;;-3.48;79.10;101397.91;5061150;28;20201;-69
2022/03/03 05:45:33;;;;;;;31.80;17.00;;;;;;;-3.53;79.24;101408.28;5060217;28;20230;-72
2022/03/03 05:48:01;;;;;;;31.37;17.63;;;;;;;-3.56;79.38;101406.53;5059078;28;20202;-70
2022/03/03 05:50:28;;;;;;;28.57;16.93;;;;;;;-3.57;79.49;101401.31;5059245;28;20204;-70
2022/03/03 05:52:59;;;;;;;35.40;17.07;;;;;;;-3.57;79.41;101406.53;5054351;28;20205;-69
2022/03/03 05:55:26;;;;;;;32.33;16.73;;;;;;;-3.57;79.69;101411.72;5059582;28;20232;-70
2022/03/03 05:57:55;;;;;;;27.50;16.20;;;;;;;-3.57;79.35;101415.22;5059457;28;20209;-68
2022/03/03 06:00:28;;;;;;;33.57;18.20;;;;;;;-3.59;79.66;101414.34;5059044;28;20201;-69
2022/03/03 06:02:55;;;;;;;28.70;16.73;;;;;;;-3.60;79.69;101402.19;5056658;28;21034;-70
2022/03/03 06:05:25;;;;;;;34.17;18.00;;;;;;;-3.60;79.87;101401.31;5056625;28;20322;-69
2022/03/03 06:07:54;;;;;;;31.93;17.90;;;;;;;-3.58;80.08;101399.56;5057851;28;20209;-69
2022/03/03 06:10:23;;;;;;;29.30;17.00;;;;;;;-3.60;80.17;101404.81;5063166;28;20208;-67
2022/03/03 06:12:51;;;;;;;34.67;17.63;;;;;;;-3.59;80.06;101392.66;5059764;28;20214;-68
2022/03/03 06:15:22;;;;;;;29.67;17.27;;;;;;;-3.60;80.12;101393.53;5059776;28;20971;-68
2022/03/03 06:17:49;;;;;;;30.50;17.17;;;;;;;-3.59;80.31;101398.72;5062080;28;20733;-69
2022/03/03 06:20:18;;;;;;;29.63;16.77;;;;;;;-3.59;80.29;101392.66;5064545;28;20270;-69
2022/03/03 06:22:46;;;;;;;31.13;16.27;;;;;;;-3.62;80.34;101397.84;5064954;28;20213;-69
2022/03/03 06:25:13;;;;;;;32.83;15.40;;;;;;;-3.66;80.19;101402.16;5064924;28;20204;-69
2022/03/03 06:27:39;;;;;;;28.73;16.67;;;;;;;-3.70;80.32;101405.59;5060471;28;20220;-72
2022/03/03 06:30:07;;;;;;;31.93;16.63;;;;;;;-3.72;80.37;101394.28;5062630;28;20213;-69
2022/03/03 06:32:33;;;;;;;29.43;16.70;;;;;;;-3.74;80.44;101388.19;5058267;28;20209;-68
2022/03/03 06:35:00;;;;;;;34.53;19.00;;;;;;;-3.73;80.39;101392.53;5061640;28;20233;-69
2022/03/03 06:37:27;;;;;;;30.50;17.37;;;;;;;-3.73;80.85;101386.47;5062946;28;20211;-69
2022/03/03 06:39:55;;;;;;;35.50;18.07;;;;;;;-3.72;80.75;101402.09;5058283;28;20215;-68
2022/03/03 06:42:21;;;;;;;33.80;18.20;;;;;;;-3.71;80.91;101393.44;5057376;28;20209;-68
2022/03/03 06:44:48;;;;;;;33.27;18.00;;;;;;;-3.69;81.04;101391.72;5063157;28;20200;-67
2022/03/03 06:47:15;;;;;;;32.43;18.77;;;;;;;-3.67;80.93;101390.00;5062980;28;20221;-70
2022/03/03 06:49:42;;;;;;;35.83;18.60;;;;;;;-3.66;81.22;101383.94;5063983;28;20211;-67
2022/03/03 06:52:09;;;;;;;32.97;18.90;;;;;;;-3.63;81.10;101391.75;5056413;28;20215;-68
2022/03/03 06:54:35;;;;;;;35.27;19.10;;;;;;;-3.61;81.40;101387.44;5057462;28;20724;-68
2022/03/03 06:57:04;;;;;;;29.90;18.40;;;;;;;-3.58;81.39;101395.25;5058212;28;20225;-69
2022/03/03 06:59:33;;;;;;;38.03;21.23;;;;;;;-3.57;81.47;101396.09;5057878;28;20205;-68
2022/03/03 07:02:00;;;;;;;29.60;18.00;;;;;;;-3.54;81.67;101399.59;5060335;28;20205;-69
2022/03/03 07:04:29;;;;;;;33.00;18.90;;;;;;;-3.52;81.80;101403.09;5060765;28;20224;-68
2022/03/03 07:06:56;;;;;;;33.77;19.43;;;;;;;-3.48;82.03;101395.31;5071862;28;20292;-70
2022/03/03 07:09:23;;;;;;;30.13;17.30;;;;;;;-3.47;81.82;101382.31;5056988;28;20209;-69
2022/03/03 07:11:51;;;;;;;34.27;19.17;;;;;;;-3.43;82.36;101385.81;5059177;28;21418;-69
2022/03/03 07:14:19;;;;;;;33.63;18.13;;;;;;;-3.40;82.24;101389.25;5060552;28;20233;-67
2022/03/03 07:16:59;;;;;;;34.77;20.50;;;;;;;-3.37;82.33;101391.88;5061305;28;20230;-72
2022/03/03 07:19:43;;;;;;;34.33;19.40;;;;;;;-3.33;82.24;101385.84;5069582;28;20211;-69
2022/03/03 07:22:16;;;;;;;42.20;21.57;;;;;;;-3.30;82.45;101380.66;5067663;28;20212;-69
2022/03/03 07:24:45;;;;;;;40.37;21.77;;;;;;;-3.25;82.61;101383.28;5080299;28;20211;-67
2022/03/03 07:27:18;;;;;;;40.27;22.90;;;;;;;-3.20;82.96;101382.41;5130990;22;20227;-70
2022/03/03 07:29:50;;;;;;;47.87;24.17;;;;;;;-3.16;82.88;101393.72;5089495;28;20211;-72
2022/03/03 07:32:20;;;;;;;40.67;21.70;;;;;;;-3.07;83.44;101408.56;5090857;28;20417;-72
2022/03/03 07:34:55;;;;;;;47.50;24.00;;;;;;;-2.98;83.95;101392.94;5090845;28;20608;-72
2022/03/03 07:37:26;;;;;;;42.47;23.03;;;;;;;-2.91;83.97;101377.34;5075656;28;20604;-71
2022/03/03 07:39:58;;;;;;;46.97;23.07;;;;;;;-2.82;84.50;101390.38;5071070;28;20205;-71
2022/03/03 07:42:24;;;;;;;42.37;21.93;;;;;;;-2.73;84.37;101388.69;5074411;28;20221;-71
2022/03/03 07:44:52;;;;;;;49.03;24.47;;;;;;;-2.63;84.52;101382.59;5074791;28;20685;-73
2022/03/03 07:47:20;;;;;;;46.00;23.20;;;;;;;-2.55;85.18;101365.25;5073932;28;20248;-73
2022/03/03 07:49:47;;;;;;;42.00;22.57;;;;;;;-2.45;84.93;101365.25;5059754;28;20215;-74
2022/03/03 07:52:14;;;;;;;39.10;22.27;;;;;;;-2.34;85.50;101367.91;5074058;28;20239;-71
2022/03/03 07:54:41;;;;;;;38.23;22.20;;;;;;;-2.24;85.69;101366.16;5072802;28;20732;-74
2022/03/03 07:57:13;;;;;;;39.50;21.97;;;;;;;-2.11;86.22;101360.03;5072842;28;20241;-74
2022/03/03 07:59:46;;;;;;;40.37;21.47;;;;;;;-1.97;86.07;101355.69;5073042;28;20205;-69
2022/03/03 08:02:20;;;;;;;37.20;21.37;;;;;;;-1.81;86.51;101357.44;5073756;28;20213;-72
2022/03/03 08:04:47;;;;;;;37.03;21.50;;;;;;;-1.67;86.29;101356.53;5072914;28;20205;-69
2022/03/03 08:07:15;;;;;;;36.93;20.57;;;;;;;-1.51;86.67;101363.44;5072545;28;20233;-74
2022/03/03 08:09:42;;;;;;;39.00;20.60;;;;;;;-1.35;86.88;101357.31;5073534;28;20212;-71
2022/03/03 08:12:10;;;;;;;36.80;21.87;;;;;;;-1.20;86.38;101364.22;5072875;28;20212;-72
2022/03/03 08:14:37;;;;;;;39.73;21.67;;;;;;;-1.06;86.14;101368.50;5073146;28;20231;-72
2022/03/03 08:17:04;;;;;;;38.53;22.50;;;;;;;-0.89;86.38;101365.78;5072045;28;20220;-72
2022/03/03 08:19:32;;;;;;;39.07;23.07;;;;;;;-0.75;86.11;101379.69;5073509;28;20297;-72
2022/03/03 08:21:59;;;;;;;42.73;21.07;;;;;;;-0.61;86.00;101391.81;5072651;28;20208;-72
2022/03/03 08:24:26;;;;;;;38.93;22.20;;;;;;;-0.48;86.05;101394.34;5072857;28;20670;-73
2022/03/03 08:26:55;;;;;;;34.70;20.43;;;;;;;-0.34;85.64;101391.63;5072778;28;20232;-72
2022/03/03 08:29:22;;;;;;;32.17;19.57;;;;;;;-0.20;85.39;101400.28;5072787;28;20698;-73
2022/03/03 08:31:53;;;;;;;33.03;19.60;;;;;;;-0.08;84.65;101404.53;5072370;28;20219;-72
2022/03/03 08:34:27;;;;;;;37.10;20.87;;;;;;;0.04;84.21;101403.56;5072498;28;20236;-72
2022/03/03 08:37:00;;;;;;;33.10;19.13;;;;;;;0.15;83.77;101409.59;5071848;28;20239;-72
2022/03/03 08:39:28;;;;;;;33.00;19.47;;;;;;;0.24;83.00;101406.88;5072210;28;20215;-72
2022/03/03 08:41:56;;;;;;;33.57;20.20;;;;;;;0.32;82.66;101402.47;5072473;28;20235;-71
2022/03/03 08:44:28;;;;;;;53.23;20.30;;;;;;;0.43;82.59;101405.84;5072143;28;20214;-71
2022/03/03 08:46:57;;;;;;;33.30;20.40;;;;;;;0.54;82.17;101406.59;5063401;28;20623;-72
2022/03/03 08:49:29;;;;;;;32.53;19.87;;;;;;;0.64;82.13;101410.88;5063188;28;20201;-73
2022/03/03 08:51:57;;;;;;;34.57;21.37;;;;;;;0.79;81.76;101406.31;5072322;28;20258;-72
2022/03/03 08:54:24;;;;;;;34.43;20.37;;;;;;;0.91;81.58;101408.81;5071915;28;20256;-72
2022/03/03 08:56:51;;;;;;;30.20;19.40;;;;;;;1.00;81.17;101398.22;5071427;28;20637;-72
2022/03/03 08:59:17;;;;;;;31.50;20.33;;;;;;;1.12;80.85;101405.06;5072063;28;20220;-71
2022/03/03 09:01:44;;;;;;;37.17;21.10;;;;;;;1.24;80.59;101399.66;5072526;28;20208;-73
2022/03/03 09:04:10;;;;;;;31.90;19.93;;;;;;;1.35;80.46;101398.63;5071932;28;20299;-72
2022/03/03 09:06:38;;;;;;;31.30;19.47;;;;;;;1.47;79.71;101410.69;5071600;28;20236;-73
2022/03/03 09:09:06;;;;;;;33.70;19.70;;;;;;;1.55;79.68;101411.47;5071853;28;20204;-72
2022/03/03 09:11:32;;;;;;;30.63;19.87;;;;;;;1.68;78.98;101393.78;5071800;28;20674;-75
2022/03/03 09:13:59;;;;;;;31.60;19.70;;;;;;;1.82;79.14;101394.44;5071358;28;20209;-72
2022/03/03 09:16:26;;;;;;;30.20;20.10;;;;;;;1.94;78.88;101391.63;5071425;28;20240;-72
2022/03/03 09:18:54;;;;;;;34.73;20.57;;;;;;;2.07;77.90;101398.41;5071659;28;20258;-73
2022/03/03 09:21:20;;;;;;;33.13;21.03;;;;;;;2.18;77.36;101392.09;5071171;28;20236;-73
2022/03/03 09:23:47;;;;;;;30.27;19.40;;;;;;;2.28;77.02;101388.44;5072223;28;20216;-73
2022/03/03 09:26:15;;;;;;;33.50;21.27;;;;;;;2.39;76.77;101386.47;5071039;28;20227;-73
2022/03/03 09:28:41;;;;;;;31.47;20.43;;;;;;;2.48;75.97;101390.72;5071543;28;20678;-73
2022/03/03 09:31:08;;;;;;;35.23;20.90;;;;;;;2.58;75.28;101394.88;5071751;28;20212;-73
2022/03/03 09:33:34;;;;;;;31.63;19.67;;;;;;;2.69;74.62;101398.16;5071505;28;20208;-73
2022/03/03 09:36:01;;;;;;;34.53;21.57;;;;;;;2.79;74.29;101392.72;5070720;28;20243;-73
2022/03/03 09:38:27;;;;;;;33.37;20.73;;;;;;;2.92;74.20;101388.06;5070463;28;20688;-72
2022/03/03 09:40:54;;;;;;;30.70;20.00;;;;;;;3.04;73.46;101395.75;5072064;28;20219;-73
2022/03/03 09:43:22;;;;;;;32.63;20.03;;;;;;;3.15;73.13;101384.97;5071074;28;20666;-73
2022/03/03 09:45:50;;;;;;;37.93;20.97;;;;;;;3.25;72.22;101386.50;5071370;28;20236;-72
2022/03/03 09:48:17;;;;;;;31.80;21.17;;;;;;;3.36;71.50;101381.88;5070907;28;20684;-73
2022/03/03 09:50:44;;;;;;;33.70;20.17;;;;;;;3.46;71.50;101395.69;5071086;28;20213;-73
2022/03/03 09:53:12;;;;;;;32.30;20.83;;;;;;;3.54;70.67;101385.00;5070768;28;20217;-73
2022/03/03 09:55:39;;;;;;;34.70;21.93;;;;;;;3.65;69.97;101380.34;5071241;28;20231;-73
2022/03/03 09:58:07;;;;;;;34.27;21.23;;;;;;;3.76;69.79;101384.44;5070483;28;20219;-73
2022/03/03 10:00:37;;;;;;;29.57;20.37;;;;;;;3.89;69.94;101385.03;5071098;28;20204;-73
2022/03/03 10:03:09;;;;;;;33.00;21.60;;;;;;;4.01;68.77;101382.09;5070800;28;20456;-73
2022/03/03 10:05:37;;;;;;;32.00;21.20;;;;;;;4.13;68.30;101387.06;5070896;28;20295;-73
2022/03/03 10:08:06;;;;;;;37.63;21.30;;;;;;;4.25;68.53;101387.66;5070124;28;20212;-72
2022/03/03 10:10:34;;;;;;;31.77;21.40;;;;;;;4.36;67.78;101391.75;5071280;28;20213;-73
2022/03/03 10:13:01;;;;;;;28.13;20.67;;;;;;;4.47;67.20;101388.84;5070595;28;20348;-73
2022/03/03 10:15:28;;;;;;;31.03;18.93;;;;;;;4.57;66.87;101382.41;5070059;28;20235;-73
2022/03/03 10:18:02;;;;;;;29.07;19.40;;;;;;;4.68;66.63;101382.09;5070185;28;20209;-73
2022/03/03 10:20:36;;;;;;;38.77;21.87;;;;;;;4.77;65.82;101385.38;5070399;28;20215;-73
2022/03/03 10:23:06;;;;;;;34.13;21.03;;;;;;;4.87;65.74;101388.63;5070531;28;20682;-73
2022/03/03 10:25:34;;;;;;;32.50;22.00;;;;;;;4.98;65.77;101388.31;5071398;28;20205;-73
2022/03/03 10:28:12;;;;;;;31.07;20.97;;;;;;;5.06;65.43;101394.22;5058658;28;20220;-72
2022/03/03 10:30:58;;;;;;;31.47;21.13;;;;;;;5.12;64.69;101380.88;5071433;28;20215;-73
2022/03/03 10:33:29;;;;;;;32.50;21.67;;;;;;;5.20;64.53;101400.84;5070091;28;20624;-73
2022/03/03 10:36:08;;;;;;;34.60;20.63;;;;;;;5.29;63.92;101391.78;5070386;28;20278;-73
2022/03/03 10:38:46;;;;;;;32.00;20.80;;;;;;;5.37;64.14;101392.44;5068948;28;20223;-73
2022/03/03 10:41:30;;;;;;;30.73;19.57;;;;;;;5.47;63.29;101385.09;5070472;28;20204;-73
2022/03/03 10:43:57;;;;;;;29.57;19.27;;;;;;;5.52;62.87;101388.47;5070457;28;20326;-73
2022/03/03 10:46:24;;;;;;;26.40;18.50;;;;;;;5.58;62.34;101386.47;5068184;28;20233;-73
2022/03/03 10:48:52;;;;;;;25.13;18.70;;;;;;;5.61;62.15;101385.53;5070160;28;20209;-72
2022/03/03 10:51:21;;;;;;;29.83;18.63;;;;;;;5.65;62.34;101384.53;5069726;28;20303;-73
2022/03/03 10:53:47;;;;;;;24.97;18.13;;;;;;;5.69;62.30;101383.53;5071463;28;20213;-73
2022/03/03 10:56:17;;;;;;;27.40;18.77;;;;;;;5.76;61.84;101386.81;5070335;28;20233;-72
2022/03/03 10:58:45;;;;;;;24.17;17.80;;;;;;;5.81;61.27;101377.84;5060558;28;20208;-76
2022/03/03 11:01:12;;;;;;;27.87;18.77;;;;;;;5.86;61.01;101377.69;5070473;28;20213;-72
2022/03/03 11:03:39;;;;;;;28.57;18.53;;;;;;;5.90;60.43;101377.59;5069614;28;20598;-73
2022/03/03 11:06:07;;;;;;;28.13;18.27;;;;;;;5.96;60.00;101384.44;5069797;28;20256;-71
2022/03/03 11:08:35;;;;;;;23.67;17.30;;;;;;;6.01;59.95;101381.66;5069458;28;20208;-72
2022/03/03 11:11:02;;;;;;;24.10;17.13;;;;;;;6.07;59.43;101376.16;5070230;28;20307;-72
2022/03/03 11:13:29;;;;;;;28.07;19.33;;;;;;;6.11;59.31;101377.78;5069498;28;20591;-69
2022/03/03 11:15:56;;;;;;;26.63;19.17;;;;;;;6.16;58.94;101376.72;5069222;28;20243;-72